Time;durP1;ratioP1;P1;durP2;ratioP2;P2;SDS_P1;SDS_P2;PMS_P1;PMS_P2;Temp;Humidity;BMP_temperature;BMP_pressure;BME280_temperature;BME280_humidity;BME280_pressure;Samples;Min_cycle;Max_cycle;Signal;HPM_P1;HPM_P2
2021/10/13 00:00:58;;;;;;;0.40;0.40;;;3.90;99.90;;;;;;4986100;28;20027;-67
2021/10/13 00:03:24;;;;;;;0.50;0.50;;;3.90;99.90;;;;;;4989546;28;20027;-67
2021/10/13 00:05:50;;;;;;;0.50;0.50;;;3.90;99.90;;;;;;4989530;28;20030;-67
2021/10/13 00:08:16;;;;;;;0.77;0.40;;;3.90;99.90;;;;;;4989761;28;20033;-67
2021/10/13 00:10:44;;;;;;;0.88;0.40;;;3.90;99.90;;;;;;4989668;28;20113;-67
2021/10/13 00:13:10;;;;;;;2.17;0.60;;;3.80;99.90;;;;;;4989800;28;20026;-66
2021/10/13 00:15:37;;;;;;;0.60;0.60;;;3.80;99.90;;;;;;4982226;28;20043;-66
2021/10/13 00:18:03;;;;;;;0.50;0.50;;;3.80;99.90;;;;;;4984131;28;20033;-67
2021/10/13 00:20:28;;;;;;;0.50;0.50;;;3.70;99.90;;;;;;4982416;28;20026;-67
2021/10/13 00:22:54;;;;;;;2.05;0.70;;;3.70;99.90;;;;;;4989298;28;20505;-67
2021/10/13 00:25:20;;;;;;;0.55;0.52;;;3.80;99.90;;;;;;4989721;28;20035;-66
2021/10/13 00:27:46;;;;;;;0.40;0.40;;;3.80;99.90;;;;;;4987034;28;20429;-66
2021/10/13 00:30:11;;;;;;;0.80;0.50;;;3.80;99.90;;;;;;4987799;28;20488;-66
2021/10/13 00:32:37;;;;;;;0.88;0.50;;;3.70;99.90;;;;;;4989189;28;20054;-66
2021/10/13 00:35:04;;;;;;;1.80;0.40;;;3.70;99.90;;;;;;4978552;28;20055;-66
2021/10/13 00:37:30;;;;;;;0.80;0.60;;;3.70;99.90;;;;;;4986364;28;20408;-66
2021/10/13 00:39:55;;;;;;;0.43;0.43;;;3.70;99.90;;;;;;4987991;28;20022;-66
2021/10/13 00:42:21;;;;;;;0.50;0.50;;;3.60;99.90;;;;;;4989451;28;20030;-65
2021/10/13 00:44:47;;;;;;;1.13;0.60;;;3.60;99.90;;;;;;4989413;28;20058;-65
2021/10/13 00:47:13;;;;;;;0.52;0.52;;;3.60;99.90;;;;;;4989432;28;20030;-65
2021/10/13 00:49:39;;;;;;;0.40;0.40;;;3.60;99.90;;;;;;4989487;28;20417;-65
2021/10/13 00:52:05;;;;;;;0.70;0.47;;;3.60;99.90;;;;;;4989366;28;20064;-65
2021/10/13 00:54:31;;;;;;;0.40;0.40;;;3.60;99.90;;;;;;4989138;28;20042;-65
2021/10/13 00:56:57;;;;;;;0.45;0.40;;;3.60;99.90;;;;;;4978311;28;20043;-65
2021/10/13 00:59:22;;;;;;;0.40;0.40;;;3.60;99.90;;;;;;4984498;28;20474;-65
2021/10/13 01:02:00;;;;;;;0.73;0.60;;;3.60;99.90;;;;;;4983493;28;20030;-65
2021/10/13 01:04:53;;;;;;;0.50;0.50;;;3.60;99.90;;;;;;4988921;28;20430;-65
2021/10/13 01:07:40;;;;;;;2.20;0.60;;;3.70;99.90;;;;;;4986746;28;20018;-65
2021/10/13 01:10:31;;;;;;;0.55;0.55;;;3.60;99.90;;;;;;4989126;28;20080;-65
2021/10/13 01:13:09;;;;;;;0.75;0.60;;;3.60;99.90;;;;;;4995383;28;20080;-65
2021/10/13 01:15:44;;;;;;;0.40;0.40;;;3.70;99.90;;;;;;4989194;28;20030;-65
2021/10/13 01:18:15;;;;;;;0.50;0.50;;;3.60;99.90;;;;;;4989173;28;20022;-65
2021/10/13 01:21:34;;;;;;;0.47;0.47;;;3.60;99.90;;;;;;4988749;28;20076;-65
2021/10/13 01:24:37;;;;;;;0.95;0.43;;;3.60;99.90;;;;;;4909552;29;20033;-66
2021/10/13 01:27:06;;;;;;;0.80;0.50;;;3.60;99.90;;;;;;4945804;28;20113;-66
2021/10/13 01:29:37;;;;;;;0.50;0.50;;;3.60;99.90;;;;;;4989029;28;20405;-65
2021/10/13 01:32:11;;;;;;;0.40;0.40;;;3.70;99.90;;;;;;4988566;28;20065;-65
2021/10/13 01:34:42;;;;;;;1.13;1.13;;;3.60;99.90;;;;;;4988917;28;20031;-66
2021/10/13 01:37:15;;;;;;;1.00;0.60;;;3.60;99.90;;;;;;4978348;28;20088;-66
2021/10/13 01:39:44;;;;;;;1.33;0.50;;;3.70;99.90;;;;;;4988376;28;20023;-66
2021/10/13 01:42:13;;;;;;;0.50;0.50;;;3.70;99.90;;;;;;4986588;28;20040;-66
2021/10/13 01:44:40;;;;;;;0.93;0.50;;;3.70;99.90;;;;;;4980754;28;20025;-66
2021/10/13 01:47:08;;;;;;;0.50;0.50;;;3.70;99.90;;;;;;4990069;28;20026;-66
2021/10/13 01:49:35;;;;;;;1.20;0.57;;;3.70;99.90;;;;;;4987790;28;20033;-65
2021/10/13 01:52:04;;;;;;;0.85;0.60;;;3.70;99.90;;;;;;4991688;28;20034;-66
2021/10/13 01:54:30;;;;;;;1.50;0.60;;;3.70;99.90;;;;;;4991467;28;20119;-66
2021/10/13 01:57:00;;;;;;;1.67;0.63;;;3.70;99.90;;;;;;4991225;28;20042;-66
2021/10/13 01:59:28;;;;;;;1.00;0.55;;;3.80;99.90;;;;;;4991719;28;20154;-66
2021/10/13 02:01:55;;;;;;;1.27;0.50;;;3.80;99.90;;;;;;4991623;28;20033;-66
2021/10/13 02:04:21;;;;;;;2.00;0.60;;;3.80;99.90;;;;;;4984590;28;20073;-66
2021/10/13 02:06:49;;;;;;;0.40;0.40;;;3.80;99.90;;;;;;4989491;28;20030;-66
2021/10/13 02:09:17;;;;;;;0.45;0.43;;;3.80;99.90;;;;;;4989339;28;20030;-66
2021/10/13 02:11:46;;;;;;;0.57;0.45;;;3.80;99.90;;;;;;4991716;28;20064;-66
2021/10/13 02:14:15;;;;;;;0.50;0.50;;;3.80;99.90;;;;;;4981012;28;20034;-68
2021/10/13 02:16:43;;;;;;;1.48;0.50;;;3.80;99.90;;;;;;4991382;28;20023;-68
2021/10/13 02:19:14;;;;;;;0.57;0.57;;;3.80;99.90;;;;;;4991206;28;20070;-68
2021/10/13 02:21:46;;;;;;;0.57;0.57;;;3.80;99.90;;;;;;4981131;28;20502;-68
2021/10/13 02:53:43;;;;;;;2.22;0.70;;;3.80;99.90;;;;;;4990718;28;20029;-68
2021/10/13 02:56:34;;;;;;;1.25;0.70;;;3.80;99.90;;;;;;4989236;28;20033;-69
2021/10/13 02:59:10;;;;;;;0.77;0.60;;;3.80;99.90;;;;;;4989671;28;20042;-68
2021/10/13 03:01:41;;;;;;;2.70;0.60;;;3.80;99.90;;;;;;4991167;28;20053;-68
2021/10/13 03:04:37;;;;;;;1.10;0.60;;;3.80;99.90;;;;;;4988827;28;20022;-68
2021/10/13 03:07:16;;;;;;;2.05;0.60;;;3.80;99.90;;;;;;4977969;28;20108;-68
2021/10/13 03:09:51;;;;;;;1.85;0.40;;;3.80;99.90;;;;;;4990474;28;20102;-68
2021/10/13 03:12:19;;;;;;;0.50;0.50;;;3.80;99.90;;;;;;4990352;28;20385;-68
2021/10/13 03:14:47;;;;;;;0.47;0.47;;;3.80;99.90;;;;;;4990710;28;20121;-68
2021/10/13 03:17:15;;;;;;;0.75;0.70;;;3.80;99.90;;;;;;4990161;28;20026;-68
2021/10/13 03:19:42;;;;;;;0.70;0.63;;;3.70;99.90;;;;;;4984175;28;20038;-68
2021/10/13 03:22:09;;;;;;;3.45;0.52;;;3.60;99.90;;;;;;4986755;28;20410;-68
2021/10/13 03:24:34;;;;;;;1.05;0.55;;;3.60;99.90;;;;;;4990356;28;20026;-68
2021/10/13 03:27:00;;;;;;;0.60;0.60;;;3.50;99.90;;;;;;4990251;28;20030;-68
2021/10/13 03:29:26;;;;;;;0.50;0.50;;;3.50;99.90;;;;;;4990472;28;20026;-68
2021/10/13 03:31:52;;;;;;;0.50;0.50;;;3.50;99.90;;;;;;4974332;28;20027;-69
2021/10/13 03:34:17;;;;;;;0.68;0.60;;;3.50;99.90;;;;;;4978516;28;20046;-68
2021/10/13 03:36:47;;;;;;;1.25;0.52;;;3.50;99.90;;;;;;4983620;28;20031;-68
2021/10/13 03:39:13;;;;;;;1.52;0.60;;;3.50;99.90;;;;;;4983896;28;20363;-68
2021/10/13 03:41:40;;;;;;;1.23;0.70;;;3.50;99.90;;;;;;4976694;28;20031;-68
2021/10/13 03:44:06;;;;;;;0.50;0.50;;;3.50;99.90;;;;;;4989802;28;20022;-68
2021/10/13 03:46:33;;;;;;;1.52;0.60;;;3.40;99.90;;;;;;4989949;28;20541;-68
2021/10/13 03:48:59;;;;;;;0.43;0.40;;;3.40;99.90;;;;;;4990168;28;20057;-68
2021/10/13 03:51:24;;;;;;;0.47;0.47;;;3.40;99.90;;;;;;4989888;28;20398;-68
2021/10/13 03:53:50;;;;;;;2.15;0.50;;;3.30;99.90;;;;;;4990048;28;20034;-68
2021/10/13 03:56:16;;;;;;;0.60;0.55;;;3.30;99.90;;;;;;4989679;28;20034;-69
2021/10/13 03:58:42;;;;;;;1.42;0.68;;;3.30;99.90;;;;;;4990233;28;20045;-68
2021/10/13 04:01:09;;;;;;;5.97;0.60;;;3.20;99.90;;;;;;4986716;28;20503;-68
2021/10/13 04:03:35;;;;;;;0.50;0.50;;;3.20;99.90;;;;;;4973542;28;20107;-67
2021/10/13 04:06:00;;;;;;;0.40;0.40;;;3.20;99.90;;;;;;4990131;28;20029;-68
2021/10/13 04:08:26;;;;;;;0.70;0.70;;;3.20;99.90;;;;;;4989644;28;20030;-68
2021/10/13 04:10:52;;;;;;;0.85;0.50;;;3.20;99.90;;;;;;4977164;28;20081;-68
2021/10/13 04:13:18;;;;;;;0.52;0.50;;;3.20;99.90;;;;;;4988700;28;20501;-68
2021/10/13 04:15:44;;;;;;;0.68;0.60;;;3.20;99.90;;;;;;4988419;28;20097;-68
2021/10/13 04:18:09;;;;;;;0.88;0.60;;;3.20;99.90;;;;;;4978073;28;20027;-69
2021/10/13 04:20:35;;;;;;;0.68;0.60;;;3.20;99.90;;;;;;4979631;28;20466;-68
2021/10/13 04:23:01;;;;;;;0.85;0.68;;;3.20;99.90;;;;;;4989635;28;20030;-68
2021/10/13 04:25:27;;;;;;;1.13;0.75;;;3.20;99.90;;;;;;4989162;28;20052;-68
2021/10/13 04:27:53;;;;;;;1.92;0.70;;;3.20;99.90;;;;;;4989611;28;20026;-68
2021/10/13 04:30:18;;;;;;;0.98;0.60;;;3.10;99.90;;;;;;4989159;28;20083;-69
2021/10/13 04:32:45;;;;;;;1.13;0.65;;;3.10;99.90;;;;;;4989508;28;20034;-71
2021/10/13 04:35:11;;;;;;;0.90;0.60;;;3.10;99.90;;;;;;4978725;28;20042;-68
2021/10/13 04:37:37;;;;;;;0.70;0.60;;;3.10;99.90;;;;;;4981276;28;20030;-66
2021/10/13 04:40:05;;;;;;;1.17;0.63;;;3.00;99.90;;;;;;4978777;28;20034;-67
2021/10/13 04:42:31;;;;;;;0.80;0.50;;;4.90;99.90;;;;;;4986755;28;20030;-66
2021/10/13 04:44:56;;;;;;;3.53;1.17;;;5.90;99.90;;;;;;4982832;28;20501;-65
2021/10/13 04:47:22;;;;;;;4.32;0.85;;;5.70;99.90;;;;;;4986407;28;20382;-66
2021/10/13 04:49:48;;;;;;;2.80;0.80;;;5.20;99.90;;;;;;4988628;28;20037;-66
2021/10/13 04:52:14;;;;;;;1.08;0.70;;;4.90;99.90;;;;;;4985630;28;20469;-66
2021/10/13 04:54:40;;;;;;;0.70;0.70;;;4.80;99.90;;;;;;4985333;28;20030;-66
2021/10/13 04:57:05;;;;;;;1.75;0.60;;;4.80;99.90;;;;;;4988954;28;20555;-68
2021/10/13 04:59:31;;;;;;;1.10;0.60;;;4.70;99.90;;;;;;4987819;28;20042;-67
2021/10/13 05:01:57;;;;;;;2.92;1.33;;;4.50;99.90;;;;;;4988325;28;20038;-68
2021/10/13 05:04:23;;;;;;;0.50;0.50;;;4.20;99.90;;;;;;4985406;28;20434;-67
2021/10/13 05:06:49;;;;;;;1.58;0.60;;;4.00;99.90;;;;;;4985809;28;20041;-67
2021/10/13 05:09:17;;;;;;;0.52;0.52;;;3.80;99.90;;;;;;4987705;28;20022;-67
2021/10/13 05:11:44;;;;;;;3.25;0.52;;;3.60;99.90;;;;;;4988219;28;20179;-69
2021/10/13 05:14:10;;;;;;;2.58;0.60;;;3.60;99.90;;;;;;4987718;28;20042;-71
2021/10/13 05:16:37;;;;;;;0.60;0.60;;;3.50;99.90;;;;;;4988050;28;20049;-70
2021/10/13 05:19:03;;;;;;;0.63;0.50;;;3.50;99.90;;;;;;4988030;28;20046;-72
2021/10/13 05:21:29;;;;;;;1.73;0.60;;;3.40;99.90;;;;;;4989297;28;20493;-70
2021/10/13 05:23:55;;;;;;;1.98;0.63;;;3.40;99.90;;;;;;4991879;28;20131;-70
2021/10/13 05:26:21;;;;;;;0.75;0.60;;;3.40;99.90;;;;;;4992038;28;20030;-70
2021/10/13 05:28:46;;;;;;;1.42;0.70;;;3.30;99.90;;;;;;4991806;28;20071;-70
2021/10/13 05:31:12;;;;;;;1.52;0.70;;;3.20;99.90;;;;;;4992106;28;20022;-70
2021/10/13 05:33:38;;;;;;;0.80;0.60;;;3.10;99.90;;;;;;4992144;28;20069;-70
2021/10/13 05:36:04;;;;;;;0.80;0.52;;;3.10;99.90;;;;;;4992160;28;20108;-70
2021/10/13 05:38:29;;;;;;;0.90;0.70;;;3.00;99.90;;;;;;4991738;28;20019;-70
2021/10/13 05:40:55;;;;;;;1.30;0.60;;;3.00;99.90;;;;;;4992104;28;20022;-71
2021/10/13 05:43:21;;;;;;;1.27;0.70;;;2.90;99.90;;;;;;4991695;28;20029;-70
2021/10/13 05:45:47;;;;;;;0.70;0.50;;;2.90;99.90;;;;;;4991688;28;20037;-68
2021/10/13 05:48:15;;;;;;;2.00;0.50;;;3.00;99.90;;;;;;4991380;28;20064;-69
2021/10/13 05:50:41;;;;;;;0.60;0.60;;;3.10;99.90;;;;;;4991329;28;20069;-68
2021/10/13 05:53:07;;;;;;;1.48;0.57;;;3.10;99.90;;;;;;4991311;28;20432;-68
2021/10/13 05:55:32;;;;;;;0.85;0.70;;;3.00;99.90;;;;;;4983358;28;20038;-68
2021/10/13 05:58:02;;;;;;;0.52;0.52;;;3.20;99.90;;;;;;4990420;28;20049;-69
2021/10/13 06:00:28;;;;;;;0.73;0.70;;;3.20;99.90;;;;;;4991278;28;20076;-65
2021/10/13 06:02:56;;;;;;;0.80;0.50;;;3.10;99.90;;;;;;4991136;28;20482;-65
2021/10/13 06:05:22;;;;;;;1.02;0.70;;;3.60;99.90;;;;;;4991202;28;20039;-65
2021/10/13 06:07:47;;;;;;;1.95;0.80;;;4.40;99.90;;;;;;4990442;28;20022;-65
2021/10/13 06:10:13;;;;;;;1.15;0.75;;;5.00;99.90;;;;;;4979089;28;20030;-66
2021/10/13 06:12:39;;;;;;;0.80;0.80;;;5.30;99.90;;;;;;4986247;28;20118;-66
2021/10/13 06:15:05;;;;;;;1.85;0.90;;;5.60;99.90;;;;;;4982777;28;20627;-66
2021/10/13 06:17:34;;;;;;;2.65;0.80;;;5.70;99.90;;;;;;4989846;28;20031;-66
2021/10/13 06:20:00;;;;;;;0.90;0.60;;;5.90;99.90;;;;;;4991061;28;20026;-63
2021/10/13 06:22:26;;;;;;;1.17;0.80;;;5.90;99.90;;;;;;4972990;28;20026;-65
2021/10/13 06:24:51;;;;;;;1.10;0.70;;;6.00;99.90;;;;;;4991293;28;20030;-65
2021/10/13 06:27:17;;;;;;;2.40;1.33;;;6.00;99.90;;;;;;4991223;28;20076;-65
2021/10/13 06:29:43;;;;;;;1.90;1.30;;;6.10;99.90;;;;;;4988950;28;20549;-65
2021/10/13 06:32:09;;;;;;;2.70;1.20;;;6.30;99.90;;;;;;4990707;28;20400;-66
2021/10/13 06:34:35;;;;;;;3.97;1.50;;;6.30;99.90;;;;;;4990412;28;20069;-68
2021/10/13 06:37:00;;;;;;;2.42;1.42;;;6.20;99.90;;;;;;4991014;28;20053;-68
2021/10/13 06:39:26;;;;;;;3.53;1.83;;;5.90;99.90;;;;;;4990900;28;20030;-66
2021/10/13 06:41:52;;;;;;;1.95;1.77;;;5.70;99.90;;;;;;4984425;28;20042;-67
2021/10/13 06:44:18;;;;;;;2.38;1.63;;;5.50;99.90;;;;;;4983927;28;20032;-67
2021/10/13 06:46:44;;;;;;;2.53;1.48;;;5.20;99.90;;;;;;4990984;28;20109;-66
2021/10/13 06:49:09;;;;;;;1.75;1.52;;;5.00;99.90;;;;;;4991083;28;20105;-65
2021/10/13 06:51:36;;;;;;;1.20;1.10;;;4.90;99.90;;;;;;4982818;28;20536;-65
2021/10/13 06:54:02;;;;;;;1.67;1.08;;;4.80;99.90;;;;;;4989477;28;20517;-67
2021/10/13 06:56:28;;;;;;;1.92;1.20;;;4.70;99.90;;;;;;4990147;28;20076;-68
2021/10/13 06:58:53;;;;;;;3.25;0.98;;;4.60;99.90;;;;;;4990671;28;20475;-68
2021/10/13 07:01:19;;;;;;;1.27;0.90;;;4.50;99.90;;;;;;4990382;28;20440;-67
2021/10/13 07:03:45;;;;;;;2.47;1.20;;;4.50;99.90;;;;;;4990651;28;20083;-66
2021/10/13 07:06:11;;;;;;;0.82;0.70;;;4.40;99.90;;;;;;4990549;28;20026;-67
2021/10/13 07:08:37;;;;;;;1.75;0.90;;;4.30;99.90;;;;;;4990511;28;20061;-67
2021/10/13 07:11:04;;;;;;;0.90;0.70;;;4.20;99.90;;;;;;4986291;28;20059;-67
2021/10/13 07:13:30;;;;;;;1.30;1.00;;;4.20;99.90;;;;;;4981151;28;20083;-68
2021/10/13 07:15:56;;;;;;;1.77;1.00;;;4.20;99.90;;;;;;4989658;28;20034;-68
2021/10/13 07:18:21;;;;;;;2.25;0.90;;;4.30;99.90;;;;;;4987949;28;20026;-68
2021/10/13 07:20:47;;;;;;;1.20;0.88;;;4.30;99.90;;;;;;4989932;28;20046;-68
2021/10/13 07:23:13;;;;;;;1.02;0.68;;;4.30;99.90;;;;;;4989845;28;20023;-68
2021/10/13 07:25:39;;;;;;;0.80;0.80;;;4.20;99.90;;;;;;4989184;28;20028;-68
2021/10/13 07:28:06;;;;;;;1.05;0.60;;;4.10;99.90;;;;;;4990275;28;20113;-69
2021/10/13 07:30:31;;;;;;;2.13;1.48;;;4.10;99.90;;;;;;4987257;28;20026;-68
2021/10/13 07:32:58;;;;;;;5.85;3.30;;;4.00;99.90;;;;;;4986943;28;20026;-68
2021/10/13 07:35:27;;;;;;;7.82;4.03;;;4.10;99.90;;;;;;4989568;28;20369;-68
2021/10/13 07:37:54;;;;;;;7.07;4.10;;;4.10;99.90;;;;;;4989934;28;20019;-67
2021/10/13 07:40:20;;;;;;;4.43;3.03;;;4.10;99.90;;;;;;4990178;28;20054;-68
2021/10/13 07:42:47;;;;;;;9.48;4.25;;;4.00;99.90;;;;;;4987625;28;20131;-68
2021/10/13 07:45:15;;;;;;;6.20;3.30;;;4.00;99.90;;;;;;4989415;28;20034;-68
2021/10/13 07:47:41;;;;;;;8.10;4.70;;;4.30;99.90;;;;;;4989770;28;20022;-68
2021/10/13 07:50:07;;;;;;;7.90;4.75;;;4.30;99.90;;;;;;4989841;28;20059;-68
2021/10/13 07:52:34;;;;;;;11.77;7.38;;;4.30;99.90;;;;;;4989694;28;20050;-68
2021/10/13 07:54:59;;;;;;;17.13;9.43;;;4.20;99.90;;;;;;4990204;28;20034;-68
2021/10/13 07:57:25;;;;;;;11.80;7.30;;;4.20;99.90;;;;;;4989748;28;20046;-70
2021/10/13 07:59:51;;;;;;;9.63;6.20;;;4.30;99.90;;;;;;4990133;28;20027;-67
2021/10/13 08:02:17;;;;;;;7.90;3.35;;;4.40;99.90;;;;;;4990037;28;20029;-68
2021/10/13 08:04:42;;;;;;;7.47;4.93;;;5.90;99.90;;;;;;4975986;28;20022;-67
2021/10/13 08:07:08;;;;;;;5.28;3.40;;;7.10;99.90;;;;;;4980108;28;20041;-67
2021/10/13 08:09:34;;;;;;;7.53;5.88;;;6.70;99.90;;;;;;4985533;28;20014;-68
2021/10/13 08:12:00;;;;;;;7.95;5.82;;;6.10;99.90;;;;;;4982218;28;20027;-67
2021/10/13 08:14:27;;;;;;;9.15;8.15;;;5.50;99.90;;;;;;4985838;28;20134;-68
2021/10/13 08:16:53;;;;;;;10.50;8.90;;;5.10;99.90;;;;;;4989083;28;20505;-67
2021/10/13 08:19:19;;;;;;;13.27;9.45;;;4.90;99.90;;;;;;4989479;28;20096;-69
2021/10/13 08:21:45;;;;;;;10.07;7.15;;;4.80;99.90;;;;;;4987163;28;20482;-68
2021/10/13 08:24:10;;;;;;;5.20;2.60;;;4.70;99.90;;;;;;4989292;28;20022;-67
2021/10/13 08:26:36;;;;;;;5.18;2.25;;;4.70;99.90;;;;;;4989296;28;20541;-68
2021/10/13 08:29:02;;;;;;;2.70;1.65;;;4.60;99.90;;;;;;4982047;28;20101;-68
2021/10/13 08:31:28;;;;;;;7.10;1.60;;;4.60;99.90;;;;;;4976205;28;20156;-67
2021/10/13 08:33:54;;;;;;;2.72;2.45;;;4.60;99.90;;;;;;4987974;28;20109;-67
2021/10/13 08:36:20;;;;;;;4.88;2.55;;;4.80;99.90;;;;;;4971293;28;20037;-67
2021/10/13 08:38:47;;;;;;;6.70;2.30;;;4.70;99.90;;;;;;4987263;28;20022;-67
2021/10/13 08:41:13;;;;;;;5.65;1.67;;;4.60;99.90;;;;;;4988140;28;20167;-67
2021/10/13 08:43:39;;;;;;;2.22;1.35;;;4.60;99.90;;;;;;4976853;28;20783;-67
2021/10/13 08:46:05;;;;;;;1.20;1.10;;;4.60;99.90;;;;;;4985956;28;20041;-68
2021/10/13 08:48:30;;;;;;;15.93;3.30;;;4.60;99.90;;;;;;4988139;28;20041;-68
2021/10/13 08:50:56;;;;;;;1.65;0.82;;;4.60;99.90;;;;;;4988204;28;20027;-68
2021/10/13 08:53:24;;;;;;;2.05;1.00;;;4.60;99.90;;;;;;4987832;28;20030;-68
2021/10/13 08:55:51;;;;;;;3.15;1.95;;;4.70;99.90;;;;;;4989015;28;20066;-66
2021/10/13 08:58:19;;;;;;;2.60;1.45;;;4.70;99.90;;;;;;4991376;28;20053;-65
2021/10/13 09:01:04;;;;;;;3.58;2.13;;;4.70;99.90;;;;;;4991703;28;20026;-65
2021/10/13 09:03:31;;;;;;;2.70;1.02;;;4.70;99.90;;;;;;4990776;28;20021;-67
2021/10/13 09:06:12;;;;;;;1.38;0.75;;;4.80;99.90;;;;;;4982108;28;20027;-67
2021/10/13 09:08:59;;;;;;;1.45;1.35;;;4.90;99.90;;;;;;4992420;28;20063;-67
2021/10/13 09:11:40;;;;;;;3.10;1.30;;;5.00;99.90;;;;;;4989878;28;20054;-67
2021/10/13 09:14:10;;;;;;;1.92;1.40;;;5.00;99.90;;;;;;4977786;28;20463;-67
2021/10/13 09:16:54;;;;;;;3.28;1.45;;;5.00;99.90;;;;;;4980053;28;20109;-67
2021/10/13 09:19:23;;;;;;;4.70;1.20;;;5.00;99.90;;;;;;4976853;28;20105;-67
2021/10/13 09:21:52;;;;;;;2.38;1.15;;;5.10;99.90;;;;;;4973056;28;20356;-67
2021/10/13 09:24:19;;;;;;;1.10;0.85;;;5.10;99.90;;;;;;4972503;28;20440;-67
2021/10/13 09:26:45;;;;;;;2.80;1.13;;;5.20;99.90;;;;;;4979434;28;20022;-67
2021/10/13 09:29:11;;;;;;;4.53;0.95;;;5.20;99.90;;;;;;4979850;28;20023;-67
2021/10/13 09:31:37;;;;;;;1.67;0.80;;;5.30;99.90;;;;;;4990934;28;20022;-67
2021/10/13 09:34:08;;;;;;;3.90;1.08;;;5.30;99.90;;;;;;4991747;28;20489;-67
2021/10/13 09:36:43;;;;;;;0.68;0.60;;;5.30;99.90;;;;;;4972763;28;20027;-67
2021/10/13 09:39:15;;;;;;;2.60;0.80;;;5.40;99.90;;;;;;4972371;28;20031;-67
2021/10/13 09:42:00;;;;;;;0.88;0.52;;;5.40;99.90;;;;;;4972189;28;20478;-67
2021/10/13 09:44:28;;;;;;;4.88;0.70;;;5.40;99.90;;;;;;4972172;28;20031;-67
2021/10/13 09:46:58;;;;;;;4.65;0.60;;;5.50;99.90;;;;;;4990174;28;20026;-67
2021/10/13 09:49:32;;;;;;;2.65;0.60;;;5.50;99.90;;;;;;4988989;28;20034;-67
2021/10/13 09:52:03;;;;;;;1.25;0.70;;;5.50;99.90;;;;;;4990380;28;20027;-67
2021/10/13 09:54:29;;;;;;;2.95;0.70;;;5.60;99.90;;;;;;4991430;28;20037;-67
2021/10/13 09:56:55;;;;;;;2.78;0.70;;;5.60;99.90;;;;;;4991391;28;20093;-67
2021/10/13 09:59:22;;;;;;;1.02;0.55;;;5.60;99.90;;;;;;4991693;28;20057;-67
2021/10/13 10:01:55;;;;;;;3.08;0.68;;;5.70;99.90;;;;;;4983001;28;20030;-67
2021/10/13 10:04:26;;;;;;;1.02;0.70;;;5.70;99.90;;;;;;4987401;28;20081;-67
2021/10/13 10:06:58;;;;;;;1.40;0.60;;;5.70;99.90;;;;;;4982818;28;20164;-67
2021/10/13 10:09:26;;;;;;;2.67;0.60;;;5.70;99.90;;;;;;4987257;28;20030;-67
2021/10/13 10:12:07;;;;;;;5.53;0.80;;;5.80;99.90;;;;;;4991384;28;20101;-67
2021/10/13 10:14:32;;;;;;;;;;;5.80;99.90;;;;;;4991641;28;20026;-67
2021/10/13 10:17:03;;;;;;;3.65;0.70;;;5.80;99.90;;;;;;4991381;28;19996;-67
2021/10/13 10:19:36;;;;;;;1.65;0.73;;;5.90;99.90;;;;;;4982838;28;20030;-67
2021/10/13 10:22:18;;;;;;;5.40;0.70;;;5.90;99.90;;;;;;4987290;28;20080;-67
2021/10/13 10:24:49;;;;;;;2.45;0.50;;;5.90;99.90;;;;;;4988645;28;20160;-67
2021/10/13 10:27:24;;;;;;;1.70;0.70;;;6.00;99.90;;;;;;4989398;28;20114;-67
2021/10/13 10:30:08;;;;;;;2.55;0.70;;;6.00;99.90;;;;;;4991309;28;20022;-67
2021/10/13 10:32:57;;;;;;;1.00;0.60;;;6.10;99.90;;;;;;4977813;28;20102;-67
2021/10/13 10:35:24;;;;;;;2.15;0.82;;;6.10;99.90;;;;;;4997051;28;20045;-67
2021/10/13 10:37:53;;;;;;;0.70;0.60;;;6.10;99.90;;;;;;4991394;28;20031;-67
2021/10/13 10:40:37;;;;;;;3.40;0.75;;;6.10;99.90;;;;;;4989964;28;20126;-67
2021/10/13 10:43:22;;;;;;;1.65;0.70;;;6.20;99.90;;;;;;4991357;28;20031;-67
2021/10/13 10:45:58;;;;;;;1.58;0.70;;;6.20;99.90;;;;;;4979327;28;20030;-67
2021/10/13 10:48:41;;;;;;;5.22;0.70;;;6.20;99.90;;;;;;4990891;28;20547;-67
2021/10/13 10:51:07;;;;;;;1.55;0.82;;;6.20;99.90;;;;;;4979302;28;20450;-67
2021/10/13 10:53:39;;;;;;;1.60;0.98;;;6.30;99.90;;;;;;4990663;28;20030;-66
2021/10/13 10:56:41;;;;;;;1.90;0.80;;;6.30;99.90;;;;;;4990462;28;20049;-66
2021/10/13 10:59:11;;;;;;;3.35;0.80;;;6.40;99.90;;;;;;5010299;28;20543;-66
2021/10/13 11:01:38;;;;;;;10.60;1.00;;;6.40;99.90;;;;;;4971050;28;20046;-66
2021/10/13 11:04:12;;;;;;;4.40;0.70;;;6.40;99.90;;;;;;4971213;28;20039;-66
2021/10/13 11:06:39;;;;;;;4.78;0.77;;;6.50;99.90;;;;;;4977498;28;20034;-66
2021/10/13 11:09:11;;;;;;;3.05;0.88;;;6.50;99.90;;;;;;4990612;28;20057;-66
2021/10/13 11:11:45;;;;;;;5.47;0.70;;;6.60;99.90;;;;;;4990147;28;20065;-66
2021/10/13 11:14:15;;;;;;;5.25;0.90;;;6.60;99.90;;;;;;4990208;28;20079;-66
2021/10/13 11:16:49;;;;;;;;;;;6.60;99.90;;;;;;4990893;28;20413;-66
2021/10/13 11:19:18;;;;;;;4.15;0.93;;;6.60;99.90;;;;;;4970016;28;20255;-67
2021/10/13 11:21:45;;;;;;;4.18;0.70;;;6.60;99.90;;;;;;4970878;28;20475;-66
2021/10/13 11:24:11;;;;;;;1.77;0.65;;;6.60;99.90;;;;;;4984516;28;20088;-66
2021/10/13 11:26:37;;;;;;;1.63;0.50;;;6.60;99.90;;;;;;4985461;28;20067;-66
2021/10/13 11:29:21;;;;;;;2.38;0.70;;;6.60;99.90;;;;;;4990168;28;20030;-67
2021/10/13 11:31:48;;;;;;;3.28;0.68;;;6.70;99.90;;;;;;4990080;28;20027;-67
2021/10/13 11:34:17;;;;;;;1.65;0.68;;;6.70;99.90;;;;;;4976356;28;20023;-67
2021/10/13 11:36:56;;;;;;;3.22;0.52;;;6.70;99.90;;;;;;4970613;28;20479;-67
2021/10/13 11:39:24;;;;;;;1.33;0.63;;;6.70;99.90;;;;;;4985049;28;20023;-67
2021/10/13 11:41:50;;;;;;;4.97;0.60;;;6.80;99.90;;;;;;4983333;28;20394;-67
2021/10/13 11:44:18;;;;;;;2.35;0.60;;;6.80;99.90;;;;;;4982342;28;20031;-68
2021/10/13 11:46:57;;;;;;;2.33;0.73;;;6.80;99.90;;;;;;4989844;28;20406;-68
2021/10/13 11:49:23;;;;;;;4.13;0.70;;;6.80;99.90;;;;;;4989998;28;20359;-68
2021/10/13 11:52:10;;;;;;;2.38;0.60;;;6.80;99.90;;;;;;5051163;28;20396;-68
2021/10/13 11:54:36;;;;;;;;;;;6.90;99.90;;;;;;5047894;28;20358;-68
2021/10/13 11:57:03;;;;;;;2.88;0.60;;;6.90;99.90;;;;;;5041194;28;19924;-68
2021/10/13 11:59:28;;;;;;;1.38;0.60;;;6.90;99.90;;;;;;5048595;28;20040;-68
2021/10/13 12:01:54;;;;;;;3.30;1.30;;;6.90;99.90;;;;;;5048718;28;20021;-68
2021/10/13 12:04:20;;;;;;;5.53;1.50;;;6.90;99.90;;;;;;5048549;28;20028;-68
2021/10/13 12:06:46;;;;;;;4.25;1.20;;;6.90;99.90;;;;;;5048292;28;20025;-67
2021/10/13 12:09:12;;;;;;;4.10;1.38;;;6.90;99.90;;;;;;5048395;28;20033;-67
2021/10/13 12:11:39;;;;;;;2.25;0.85;;;6.90;99.90;;;;;;5048056;28;20041;-67
2021/10/13 12:14:12;;;;;;;1.55;0.68;;;6.90;99.90;;;;;;5048666;28;20097;-67
2021/10/13 12:16:38;;;;;;;3.97;0.80;;;6.90;99.90;;;;;;5048291;28;20029;-67
2021/10/13 12:19:14;;;;;;;5.07;0.70;;;6.90;99.90;;;;;;5048693;28;20026;-67
2021/10/13 12:22:01;;;;;;;2.53;0.90;;;6.90;99.90;;;;;;5048116;28;20045;-67
2021/10/13 12:24:27;;;;;;;2.47;0.75;;;6.90;99.90;;;;;;5048240;28;20032;-67
2021/10/13 12:26:53;;;;;;;2.25;0.90;;;6.90;99.90;;;;;;5047838;28;20427;-67
2021/10/13 12:29:18;;;;;;;1.13;0.60;;;6.90;99.90;;;;;;5048510;28;20596;-67
2021/10/13 12:31:45;;;;;;;3.13;1.05;;;6.90;99.90;;;;;;5048225;28;20044;-67
2021/10/13 12:34:16;;;;;;;1.10;0.60;;;6.90;99.90;;;;;;5037070;28;20064;-67
2021/10/13 12:36:51;;;;;;;1.48;0.50;;;7.00;99.90;;;;;;5045331;28;20492;-67
2021/10/13 12:39:25;;;;;;;2.72;0.55;;;7.00;99.90;;;;;;5033796;28;20147;-67
2021/10/13 12:41:51;;;;;;;1.45;0.60;;;7.00;99.90;;;;;;5047678;28;20068;-67
2021/10/13 12:44:24;;;;;;;2.58;0.68;;;7.00;99.90;;;;;;5047804;28;20428;-67
2021/10/13 12:46:59;;;;;;;2.83;0.60;;;7.00;99.90;;;;;;5047713;28;20025;-67
2021/10/13 12:49:30;;;;;;;4.07;0.70;;;7.00;99.90;;;;;;5047947;28;20071;-67
2021/10/13 12:51:59;;;;;;;3.90;0.75;;;7.00;99.90;;;;;;5047863;28;20045;-67
2021/10/13 12:54:30;;;;;;;8.75;0.90;;;7.00;99.90;;;;;;5047585;28;20021;-67
2021/10/13 12:56:56;;;;;;;5.35;0.90;;;7.00;99.90;;;;;;5047828;28;20075;-67
2021/10/13 12:59:22;;;;;;;0.90;0.68;;;7.00;99.90;;;;;;5044023;28;20022;-67
2021/10/13 13:01:48;;;;;;;2.75;0.60;;;7.00;99.90;;;;;;5025133;28;20026;-67
2021/10/13 13:04:14;;;;;;;1.60;0.60;;;7.00;99.90;;;;;;5027744;28;20492;-67
2021/10/13 13:06:43;;;;;;;1.77;0.70;;;7.00;99.90;;;;;;5034354;28;20104;-67
2021/10/13 13:09:09;;;;;;;3.80;0.68;;;7.00;99.90;;;;;;5034216;28;20120;-67
2021/10/13 13:11:35;;;;;;;0.85;0.70;;;7.00;99.90;;;;;;5034036;28;20141;-67
2021/10/13 13:14:01;;;;;;;0.93;0.50;;;7.00;99.90;;;;;;5034400;28;20021;-67
2021/10/13 13:16:27;;;;;;;1.48;0.50;;;7.00;99.90;;;;;;5033998;28;20029;-67
2021/10/13 13:18:56;;;;;;;6.03;0.95;;;7.00;99.90;;;;;;5033853;28;20043;-67
2021/10/13 13:21:23;;;;;;;2.25;0.80;;;7.00;99.90;;;;;;5026057;28;20115;-67
2021/10/13 13:23:51;;;;;;;1.92;0.73;;;7.00;99.90;;;;;;5033618;28;20037;-67
2021/10/13 13:26:18;;;;;;;4.03;0.60;;;7.00;99.90;;;;;;5034203;28;20033;-67
2021/10/13 13:28:44;;;;;;;0.85;0.52;;;7.10;99.90;;;;;;5019552;28;20044;-69
2021/10/13 13:31:10;;;;;;;1.92;0.70;;;7.10;99.90;;;;;;5018083;28;20431;-69
2021/10/13 13:33:36;;;;;;;4.63;0.80;;;7.00;99.90;;;;;;5033607;28;20017;-69
2021/10/13 13:36:01;;;;;;;3.30;1.05;;;7.00;99.90;;;;;;5024704;28;20029;-69